Time;durP1;ratioP1;P1;durP2;ratioP2;P2;SDS_P1;SDS_P2;PMS_P1;PMS_P2;Temp;Humidity;BMP_temperature;BMP_pressure;BME280_temperature;BME280_humidity;BME280_pressure;Samples;Min_cycle;Max_cycle;Signal;HPM_P1;HPM_P2
2023/06/14 00:01:55;;;;;;;;;;;16.90;59.30;;;;;;6225310;22;20218;-77
2023/06/14 00:04:21;;;;;;;;;;;16.90;59.30;;;;;;6251485;22;20268;-79
2023/06/14 00:09:50;;;;;;;;;;;16.90;59.50;;;;;;6278508;22;19968;-79
2023/06/14 00:12:16;;;;;;;;;;;16.80;59.40;;;;;;6225165;22;20280;-79
2023/06/14 00:14:42;;;;;;;;;;;16.80;59.40;;;;;;6225675;22;19997;-79
2023/06/14 00:17:08;;;;;;;;;;;16.80;59.30;;;;;;6225256;22;20261;-77
2023/06/14 00:19:36;;;;;;;;;;;16.80;59.30;;;;;;6278256;22;20304;-78
2023/06/14 00:22:03;;;;;;;;;;;16.80;59.40;;;;;;6250933;22;19907;-77
2023/06/14 00:24:29;;;;;;;;;;;16.80;59.50;;;;;;6251227;22;19915;-77
2023/06/14 00:26:55;;;;;;;;;;;16.70;59.10;;;;;;6250403;22;19914;-77
2023/06/14 00:29:21;;;;;;;;;;;16.70;60.00;;;;;;6278173;22;19922;-78
2023/06/14 00:31:46;;;;;;;;;;;16.70;59.80;;;;;;6250246;22;19990;-77
2023/06/14 00:34:12;;;;;;;;;;;16.70;59.70;;;;;;6251043;22;19907;-79
2023/06/14 00:36:38;;;;;;;;;;;16.70;59.60;;;;;;6250108;22;19907;-79
2023/06/14 00:39:04;;;;;;;;;;;16.60;59.60;;;;;;6277926;22;20310;-77
2023/06/14 00:41:30;;;;;;;;;;;16.70;59.90;;;;;;6250299;22;19915;-79
2023/06/14 00:43:56;;;;;;;;;;;16.60;59.80;;;;;;6250799;22;19929;-78
2023/06/14 00:46:22;;;;;;;;;;;16.60;59.80;;;;;;6245068;23;20176;-78
2023/06/14 00:48:49;;;;;;;;;;;16.50;59.80;;;;;;6245735;23;20272;-77
2023/06/14 00:51:14;;;;;;;;;;;16.50;59.60;;;;;;6245406;23;20002;-77
2023/06/14 00:53:45;;;;;;;;;;;16.50;59.80;;;;;;6245755;23;19912;-77
2023/06/14 00:56:13;;;;;;;;;;;16.50;59.70;;;;;;6245353;23;20321;-78
2023/06/14 00:58:39;;;;;;;;;;;16.50;59.70;;;;;;6245693;23;19907;-78
2023/06/14 01:01:05;;;;;;;;;;;16.50;59.80;;;;;;6245208;23;19915;-78
2023/06/14 01:03:32;;;;;;;;;;;16.50;60.10;;;;;;6245478;23;19911;-79
2023/06/14 01:06:35;;;;;;;;;;;16.40;60.20;;;;;;6245205;22;19916;-77
2023/06/14 01:09:08;;;;;;;;;;;16.50;60.30;;;;;;6245364;22;19907;-77
2023/06/14 01:11:58;;;;;;;;;;;16.40;60.60;;;;;;6246465;22;19907;-78
2023/06/14 01:14:25;;;;;;;;;;;16.40;60.60;;;;;;6245258;22;19920;-77
2023/06/14 01:16:52;;;;;;;;;;;16.30;60.70;;;;;;6244784;23;20388;-79
2023/06/14 01:19:19;;;;;;;;;;;16.30;60.80;;;;;;6245425;23;19953;-78
2023/06/14 01:21:44;;;;;;;;;;;16.30;60.80;;;;;;6219496;23;19908;-79
2023/06/14 01:24:13;;;;;;;;;;;16.30;61.00;;;;;;6219997;23;19912;-78
2023/06/14 01:26:45;;;;;;;;;;;16.30;60.90;;;;;;6219367;23;19907;-77
2023/06/14 01:29:17;;;;;;;;;;;16.20;60.90;;;;;;6245659;23;20193;-78
2023/06/14 01:31:43;;;;;;;;;;;16.20;61.00;;;;;;6245547;22;19914;-78
2023/06/14 01:34:09;;;;;;;;;;;16.20;61.00;;;;;;6245415;22;20322;-77
2023/06/14 01:36:36;;;;;;;;;;;16.20;61.10;;;;;;6244591;23;19915;-79
2023/06/14 01:39:23;;;;;;;;;;;16.10;60.80;;;;;;6245196;22;19946;-77
2023/06/14 01:41:50;;;;;;;;;;;16.20;60.90;;;;;;6245629;22;19922;-77
2023/06/14 01:44:19;;;;;;;;;;;16.10;61.00;;;;;;6244958;23;19916;-79
2023/06/14 01:46:45;;;;;;;;;;;16.10;60.80;;;;;;6218977;23;20348;-77
2023/06/14 01:49:20;;;;;;;;;;;16.10;61.20;;;;;;6245212;22;19911;-77
2023/06/14 01:51:46;;;;;;;;;;;16.10;61.30;;;;;;6219269;23;19973;-79
2023/06/14 01:54:12;;;;;;;;;;;16.10;61.60;;;;;;6219933;23;19911;-77
2023/06/14 01:56:38;;;;;;;;;;;16.00;61.50;;;;;;6245914;23;19990;-78
2023/06/14 01:59:31;;;;;;;;;;;16.00;61.60;;;;;;6245124;22;19908;-77
2023/06/14 02:01:56;;;;;;;;;;;16.00;61.70;;;;;;6244861;22;19911;-79
2023/06/14 02:04:22;;;;;;;;;;;15.90;62.00;;;;;;6246624;22;20328;-77
2023/06/14 02:06:48;;;;;;;;;;;15.90;62.30;;;;;;6245851;23;20316;-79
2023/06/14 02:09:15;;;;;;;;;;;15.90;62.20;;;;;;6245001;23;21639;-77
2023/06/14 02:11:41;;;;;;;;;;;15.90;62.10;;;;;;6246197;22;19921;-77
2023/06/14 02:14:07;;;;;;;;;;;15.80;62.10;;;;;;6244913;23;19982;-77
2023/06/14 02:16:35;;;;;;;;;;;15.80;62.10;;;;;;6244215;23;19914;-76
2023/06/14 02:19:05;;;;;;;;;;;15.70;62.30;;;;;;6244847;22;19911;-77
2023/06/14 02:21:31;;;;;;;;;;;15.70;62.20;;;;;;6245715;22;19957;-76
2023/06/14 02:23:58;;;;;;;;;;;15.70;62.30;;;;;;6244749;22;19907;-79
2023/06/14 02:26:28;;;;;;;;;;;15.80;62.30;;;;;;6219118;23;19907;-79
2023/06/14 02:28:54;;;;;;;;;;;15.70;62.40;;;;;;6244843;23;19912;-77
2023/06/14 02:31:20;;;;;;;;;;;15.70;62.50;;;;;;6246003;22;19920;-79
2023/06/14 02:33:46;;;;;;;;;;;15.70;62.60;;;;;;6245767;23;19986;-77
2023/06/14 02:36:12;;;;;;;;;;;15.70;62.70;;;;;;6218750;23;19922;-79
2023/06/14 02:38:38;;;;;;;;;;;15.70;62.60;;;;;;6219352;23;19943;-79
2023/06/14 02:41:04;;;;;;;;;;;15.70;62.70;;;;;;6244423;23;19994;-79
2023/06/14 02:43:30;;;;;;;;;;;15.60;62.60;;;;;;6244658;23;20321;-79
2023/06/14 02:45:55;;;;;;;;;;;15.60;62.90;;;;;;6257433;22;20240;-77
2023/06/14 02:48:21;;;;;;;;;;;15.50;63.10;;;;;;6249711;22;19964;-78
2023/06/14 02:51:09;;;;;;;;;;;15.50;63.20;;;;;;6249427;22;19939;-79
2023/06/14 02:53:36;;;;;;;;;;;15.50;63.40;;;;;;6276715;22;20240;-77
2023/06/14 02:56:03;;;;;;;;;;;15.20;63.30;;;;;;6249394;22;19947;-77
2023/06/14 02:58:30;;;;;;;;;;;15.20;62.80;;;;;;6276747;22;19938;-77
2023/06/14 03:00:56;;;;;;;;;;;15.20;63.20;;;;;;6249255;22;19926;-79
2023/06/14 03:03:24;;;;;;;;;;;15.20;63.10;;;;;;6224220;22;19990;-77
2023/06/14 03:05:51;;;;;;;;;;;15.10;62.50;;;;;;6249005;22;20335;-79
2023/06/14 03:08:18;;;;;;;;;;;15.10;62.80;;;;;;6249723;22;19908;-77
2023/06/14 03:11:04;;;;;;;;;;;15.00;62.60;;;;;;6248922;22;20324;-77
2023/06/14 03:13:32;;;;;;;;;;;14.90;63.10;;;;;;6249700;22;19942;-77
2023/06/14 03:15:58;;;;;;;;;;;14.80;63.60;;;;;;6223764;22;20340;-77
2023/06/14 03:18:24;;;;;;;;;;;14.80;63.00;;;;;;6249377;22;19907;-79
2023/06/14 03:20:50;;;;;;;;;;;14.80;63.50;;;;;;6223581;22;19952;-79
2023/06/14 03:23:17;;;;;;;;;;;14.80;63.20;;;;;;6250042;22;19915;-77
2023/06/14 03:25:43;;;;;;;;;;;14.80;63.40;;;;;;6249265;22;19914;-79
2023/06/14 03:28:09;;;;;;;;;;;14.80;63.50;;;;;;6249614;22;19915;-77
2023/06/14 03:30:35;;;;;;;;;;;14.80;63.40;;;;;;6249148;22;19926;-79
2023/06/14 03:33:02;;;;;;;;;;;14.80;63.90;;;;;;6249733;22;19968;-79
2023/06/14 03:35:28;;;;;;;;;;;14.80;63.10;;;;;;6223572;22;19914;-77
2023/06/14 03:37:54;;;;;;;;;;;14.70;64.00;;;;;;6249481;22;19915;-77
2023/06/14 03:40:21;;;;;;;;;;;14.70;64.50;;;;;;6276012;22;19956;-77
2023/06/14 03:42:47;;;;;;;;;;;14.70;64.10;;;;;;6249241;22;19911;-79
2023/06/14 03:45:13;;;;;;;;;;;14.70;63.60;;;;;;6249024;22;19915;-79
2023/06/14 03:47:39;;;;;;;;;;;14.80;64.10;;;;;;6224118;22;19985;-77
2023/06/14 03:50:06;;;;;;;;;;;14.80;64.20;;;;;;6249381;22;20006;-77
2023/06/14 03:52:32;;;;;;;;;;;14.80;64.10;;;;;;6249488;22;19914;-79
2023/06/14 03:55:00;;;;;;;;;;;14.80;63.70;;;;;;6249642;22;20283;-77
2023/06/14 03:57:26;;;;;;;;;;;14.90;63.70;;;;;;6249350;22;19907;-80
2023/06/14 03:59:52;;;;;;;;;;;14.90;64.10;;;;;;6224130;22;19915;-79
2023/06/14 04:02:19;;;;;;;;;;;14.90;64.10;;;;;;6248901;22;19907;-79
2023/06/14 04:04:45;;;;;;;;;;;15.00;64.30;;;;;;6249796;22;19915;-77
2023/06/14 04:07:12;;;;;;;;;;;15.00;63.60;;;;;;6223531;22;20317;-80
2023/06/14 04:09:39;;;;;;;;;;;15.10;64.10;;;;;;6251011;22;19916;-79
2023/06/14 04:12:06;;;;;;;;;;;15.10;64.10;;;;;;6250782;22;19913;-79
2023/06/14 04:14:32;;;;;;;;;;;15.20;64.20;;;;;;6251330;22;19921;-79
2023/06/14 04:16:58;;;;;;;;;;;15.20;64.10;;;;;;6277495;22;19907;-77
2023/06/14 04:19:25;;;;;;;;;;;15.30;63.60;;;;;;6251192;22;20370;-79
2023/06/14 04:21:51;;;;;;;;;;;15.30;64.50;;;;;;6277565;22;19915;-79
2023/06/14 04:24:16;;;;;;;;;;;15.30;64.30;;;;;;6225787;22;19957;-79
2023/06/14 04:26:44;;;;;;;;;;;15.40;64.30;;;;;;6224908;22;19911;-78
2023/06/14 04:29:14;;;;;;;;;;;15.30;64.90;;;;;;6251279;22;20392;-77
2023/06/14 04:31:40;;;;;;;;;;;15.40;65.00;;;;;;6225510;22;19956;-79
2023/06/14 04:34:06;;;;;;;;;;;15.40;64.60;;;;;;6251193;22;20210;-76
2023/06/14 04:36:53;;;;;;;;;;;15.50;65.20;;;;;;6250125;22;19962;-79
2023/06/14 04:39:20;;;;;;;;;;;15.50;65.20;;;;;;6226134;22;19980;-76
2023/06/14 04:41:46;;;;;;;;;;;15.60;65.10;;;;;;6250585;22;19911;-80
2023/06/14 04:44:12;;;;;;;;;;;15.60;65.10;;;;;;6251182;22;19918;-77
2023/06/14 04:46:46;;;;;;;;;;;15.60;65.10;;;;;;6234962;23;19978;-77
2023/06/14 04:49:32;;;;;;;;;;;15.70;65.00;;;;;;6222166;23;19915;-80
2023/06/14 04:51:59;;;;;;;;;;;15.80;65.00;;;;;;6220222;23;19907;-80
2023/06/14 04:54:25;;;;;;;;;;;15.80;65.40;;;;;;6220516;23;19916;-77
2023/06/14 04:56:53;;;;;;;;;;;15.90;65.10;;;;;;6219590;23;19954;-77
2023/06/14 04:59:19;;;;;;;;;;;15.90;65.00;;;;;;6220906;23;19943;-80
2023/06/14 05:01:48;;;;;;;;;;;16.00;64.80;;;;;;6219753;23;19908;-80
2023/06/14 05:04:32;;;;;;;;;;;16.10;65.10;;;;;;6247552;22;19916;-80
2023/06/14 05:06:58;;;;;;;;;;;16.20;64.60;;;;;;6246397;23;19907;-78
2023/06/14 05:09:24;;;;;;;;;;;16.30;64.80;;;;;;6220290;23;20288;-80
2023/06/14 05:11:50;;;;;;;;;;;16.30;64.60;;;;;;6219428;23;19986;-77
2023/06/14 05:14:17;;;;;;;;;;;16.50;63.90;;;;;;6245708;22;19969;-80
2023/06/14 05:16:43;;;;;;;;;;;16.50;64.50;;;;;;6219365;23;19937;-79
2023/06/14 05:19:10;;;;;;;;;;;16.60;63.80;;;;;;6245044;22;19922;-77
2023/06/14 05:21:37;;;;;;;;;;;16.70;64.20;;;;;;6219138;23;19911;-77
2023/06/14 05:24:03;;;;;;;;;;;16.80;63.90;;;;;;6220453;23;19922;-78
2023/06/14 05:26:29;;;;;;;;;;;16.90;63.30;;;;;;6219407;23;19907;-78
2023/06/14 05:29:15;;;;;;;;;;;17.10;63.90;;;;;;6245408;23;19946;-78
2023/06/14 05:31:41;;;;;;;;;;;17.20;63.40;;;;;;6244772;23;19907;-78
2023/06/14 05:34:07;;;;;;;;;;;17.40;63.80;;;;;;6245380;22;20287;-80
2023/06/14 05:36:33;;;;;;;;;;;17.50;64.20;;;;;;6219285;23;20218;-80
2023/06/14 05:38:59;;;;;;;;;;;17.60;63.90;;;;;;6219842;23;19943;-77
2023/06/14 05:41:26;;;;;;;;;;;17.70;63.80;;;;;;6246149;23;19986;-80
2023/06/14 05:43:53;;;;;;;;;;;17.80;63.30;;;;;;6220114;23;19916;-80
2023/06/14 05:46:22;;;;;;;;;;;17.90;63.20;;;;;;6249243;22;19911;-77
2023/06/14 05:48:48;;;;;;;;;;;18.10;62.90;;;;;;6250620;22;20337;-77
2023/06/14 05:51:18;;;;;;;;;;;18.30;62.60;;;;;;6249500;22;19907;-79
2023/06/14 05:53:46;;;;;;;;;;;18.40;62.20;;;;;;6250910;22;19911;-80
2023/06/14 05:56:12;;;;;;;;;;;18.60;61.90;;;;;;6249488;22;20312;-78
2023/06/14 05:58:58;;;;;;;;;;;18.70;61.10;;;;;;6250174;22;20285;-79
2023/06/14 06:01:25;;;;;;;;;;;18.90;60.70;;;;;;6128413;23;20313;-80
2023/06/14 06:03:51;;;;;;;;;;;19.10;60.20;;;;;;6153440;23;19919;-80
2023/06/14 06:06:17;;;;;;;;;;;19.30;59.50;;;;;;6152921;23;20299;-78
2023/06/14 06:08:43;;;;;;;;;;;19.50;59.00;;;;;;6153394;23;19920;-79
2023/06/14 06:11:09;;;;;;;;;;;19.80;58.80;;;;;;6153095;23;19912;-78
2023/06/14 06:13:35;;;;;;;;;;;19.90;58.40;;;;;;6128514;23;19912;-78
2023/06/14 06:16:02;;;;;;;;;;;20.00;58.00;;;;;;6152784;23;19917;-77
2023/06/14 06:18:28;;;;;;;;;;;20.10;57.20;;;;;;6128550;23;19917;-78
2023/06/14 06:20:55;;;;;;;;;;;20.30;56.70;;;;;;6152920;23;19932;-80
2023/06/14 06:23:21;;;;;;;;;;;20.50;56.30;;;;;;6128631;23;19927;-79
2023/06/14 06:25:47;;;;;;;;;;;20.60;55.90;;;;;;6152746;23;19970;-78
2023/06/14 06:28:13;;;;;;;;;;;20.80;55.70;;;;;;6128632;23;20040;-80
2023/06/14 06:30:39;;;;;;;;;;;20.90;54.90;;;;;;6152541;23;19913;-80
2023/06/14 06:33:05;;;;;;;;;;;21.00;54.70;;;;;;6153178;23;19936;-77
2023/06/14 06:35:32;;;;;;;;;;;21.10;54.30;;;;;;6152796;23;19950;-78
2023/06/14 06:37:59;;;;;;;;;;;21.10;54.10;;;;;;6189168;22;19907;-79
2023/06/14 06:40:25;;;;;;;;;;;21.10;53.10;;;;;;6224019;22;19915;-80
2023/06/14 06:42:51;;;;;;;;;;;21.10;53.60;;;;;;6249743;22;20244;-79
2023/06/14 06:45:17;;;;;;;;;;;21.20;53.50;;;;;;6249063;22;20293;-78
2023/06/14 06:47:43;;;;;;;;;;;21.40;53.30;;;;;;6249785;22;19945;-79
2023/06/14 06:50:09;;;;;;;;;;;21.30;52.90;;;;;;6223984;22;19922;-79
2023/06/14 06:52:35;;;;;;;;;;;21.30;52.20;;;;;;6249816;22;19907;-79
2023/06/14 06:55:02;;;;;;;;;;;21.30;52.60;;;;;;6277151;22;19950;-79
2023/06/14 06:57:29;;;;;;;;;;;21.40;51.70;;;;;;6223910;22;19907;-78
2023/06/14 06:59:55;;;;;;;;;;;21.60;51.40;;;;;;6250159;22;19941;-79
2023/06/14 07:02:21;;;;;;;;;;;21.70;51.70;;;;;;6223777;22;20323;-79
2023/06/14 07:04:47;;;;;;;;;;;21.80;51.40;;;;;;6224459;22;19922;-79
2023/06/14 07:07:12;;;;;;;;;;;21.90;51.30;;;;;;6223676;22;19953;-78
2023/06/14 07:09:38;;;;;;;;;;;21.90;51.40;;;;;;6277088;22;20381;-78
2023/06/14 07:12:05;;;;;;;;;;;21.80;50.50;;;;;;6276010;22;19911;-78
2023/06/14 07:14:31;;;;;;;;;;;21.60;50.80;;;;;;6249864;22;20002;-79
2023/06/14 07:16:56;;;;;;;;;;;21.60;51.50;;;;;;6223513;22;19907;-79
2023/06/14 07:19:22;;;;;;;;;;;21.80;51.00;;;;;;6249522;22;19973;-79
2023/06/14 07:21:48;;;;;;;;;;;21.90;50.20;;;;;;6223300;22;19914;-78
2023/06/14 07:24:15;;;;;;;;;;;22.10;50.40;;;;;;6276510;22;19946;-79
2023/06/14 07:26:40;;;;;;;;;;;22.20;49.00;;;;;;6249117;22;19907;-80
2023/06/14 07:29:06;;;;;;;;;;;22.30;49.00;;;;;;6249704;22;19994;-80
2023/06/14 07:31:32;;;;;;;;;;;22.40;49.10;;;;;;6248874;22;20236;-79
2023/06/14 07:33:58;;;;;;;;;;;22.50;48.50;;;;;;6276770;22;20037;-80
2023/06/14 07:36:24;;;;;;;;;;;22.50;48.60;;;;;;6223477;22;19990;-79
2023/06/14 07:38:50;;;;;;;;;;;22.60;48.90;;;;;;6249373;22;19986;-79
2023/06/14 07:41:16;;;;;;;;;;;22.70;48.20;;;;;;6275959;22;19953;-80
2023/06/14 07:43:42;;;;;;;;;;;22.80;47.90;;;;;;6251003;22;19919;-80
2023/06/14 07:46:09;;;;;;;;;;;22.90;48.60;;;;;;6250464;22;19918;-79
2023/06/14 07:48:35;;;;;;;;;;;23.00;48.50;;;;;;6226005;22;19915;-79
2023/06/14 07:51:01;;;;;;;;;;;23.10;48.40;;;;;;6277927;22;19907;-80
2023/06/14 07:53:27;;;;;;;;;;;23.10;48.30;;;;;;6225962;22;20320;-80
2023/06/14 07:55:53;;;;;;;;;;;23.20;48.10;;;;;;6250721;22;20002;-80
2023/06/14 07:58:18;;;;;;;;;;;23.30;48.10;;;;;;6251293;22;20210;-79
2023/06/14 08:00:46;;;;;;;;;;;23.40;47.90;;;;;;6277804;22;19998;-79
2023/06/14 08:03:11;;;;;;;;;;;23.40;47.20;;;;;;6226248;22;19911;-80
2023/06/14 08:05:37;;;;;;;;;;;23.50;47.50;;;;;;6250810;22;19939;-78
2023/06/14 08:08:03;;;;;;;;;;;23.50;46.70;;;;;;6278003;22;19938;-79
2023/06/14 08:10:29;;;;;;;;;;;23.60;46.00;;;;;;6250721;22;20384;-79
2023/06/14 08:12:55;;;;;;;;;;;23.70;45.90;;;;;;6250950;22;19914;-79
2023/06/14 08:15:21;;;;;;;;;;;23.80;46.00;;;;;;6250762;22;20245;-80
2023/06/14 08:17:48;;;;;;;;;;;23.90;46.20;;;;;;6278113;22;19941;-80
2023/06/14 08:20:16;;;;;;;;;;;23.80;43.90;;;;;;6278225;22;19911;-79
2023/06/14 08:22:43;;;;;;;;;;;23.90;44.70;;;;;;6226235;22;19986;-80
2023/06/14 08:25:09;;;;;;;;;;;24.00;44.70;;;;;;6250947;22;19915;-81
2023/06/14 08:27:35;;;;;;;;;;;24.10;44.50;;;;;;6250889;22;19911;-80
2023/06/14 08:30:02;;;;;;;;;;;24.10;43.90;;;;;;6251265;22;20268;-79
2023/06/14 08:32:28;;;;;;;;;;;24.20;44.70;;;;;;6250726;22;19986;-79
2023/06/14 08:34:54;;;;;;;;;;;24.30;44.80;;;;;;6251125;22;20312;-80
2023/06/14 08:37:20;;;;;;;;;;;24.50;45.20;;;;;;6225114;22;19917;-79
2023/06/14 08:39:46;;;;;;;;;;;24.50;45.00;;;;;;6251010;22;19911;-80
2023/06/14 08:42:12;;;;;;;;;;;24.60;44.60;;;;;;6224790;22;20367;-80
2023/06/14 08:44:38;;;;;;;;;;;24.60;43.40;;;;;;6225625;22;19939;-79
2023/06/14 08:47:06;;;;;;;;;;;24.70;39.90;;;;;;6250062;22;19915;-80
2023/06/14 08:49:32;;;;;;;;;;;24.70;41.80;;;;;;6251035;22;19919;-80
2023/06/14 08:52:00;;;;;;;;;;;24.70;41.90;;;;;;6250140;22;19915;-80
2023/06/14 08:55:05;;;;;;;;;;;24.80;42.60;;;;;;6251074;22;20292;-79
2023/06/14 08:57:31;;;;;;;;;;;25.00;40.70;;;;;;6277499;22;19907;-78
2023/06/14 09:00:01;;;;;;;;;;;25.00;41.40;;;;;;6278374;22;19916;-79
2023/06/14 09:02:27;;;;;;;;;;;25.20;41.90;;;;;;6251097;22;19946;-81
2023/06/14 09:04:53;;;;;;;;;;;25.50;41.50;;;;;;6250803;22;19950;-80
2023/06/14 09:07:20;;;;;;;;;;;25.70;41.10;;;;;;6225117;22;19907;-77
2023/06/14 09:09:46;;;;;;;;;;;25.80;39.60;;;;;;6250997;22;19915;-77
2023/06/14 09:12:12;;;;;;;;;;;26.00;40.10;;;;;;6276971;22;19907;-79
2023/06/14 09:14:40;;;;;;;;;;;26.20;39.80;;;;;;6250934;22;19938;-80
2023/06/14 09:17:06;;;;;;;;;;;26.30;38.80;;;;;;6224936;22;19907;-80
2023/06/14 09:19:35;;;;;;;;;;;26.20;38.70;;;;;;6225102;22;19926;-79
2023/06/14 09:22:01;;;;;;;;;;;26.50;39.20;;;;;;6250283;22;19930;-77
2023/06/14 09:24:26;;;;;;;;;;;26.70;39.00;;;;;;6277934;22;20313;-79
2023/06/14 09:26:53;;;;;;;;;;;26.90;37.00;;;;;;6277005;22;20279;-80
2023/06/14 09:29:19;;;;;;;;;;;27.20;37.80;;;;;;6250667;22;19915;-80
2023/06/14 09:32:05;;;;;;;;;;;27.60;37.20;;;;;;6249668;22;19950;-79
2023/06/14 09:34:31;;;;;;;;;;;27.90;35.80;;;;;;6277991;22;19919;-80
2023/06/14 09:36:57;;;;;;;;;;;28.20;35.90;;;;;;6224214;22;19946;-79
2023/06/14 09:39:23;;;;;;;;;;;28.10;31.40;;;;;;6225172;22;19922;-79
2023/06/14 09:41:48;;;;;;;;;;;27.80;34.20;;;;;;6249614;22;20363;-77
2023/06/14 09:44:14;;;;;;;;;;;27.60;34.40;;;;;;6250266;22;20313;-78
2023/06/14 09:46:40;;;;;;;;;;;27.60;34.80;;;;;;6249521;22;20293;-79
2023/06/14 09:49:06;;;;;;;;;;;28.60;34.40;;;;;;6224200;22;19994;-78
2023/06/14 09:51:33;;;;;;;;;;;29.90;30.60;;;;;;6224340;22;19958;-79
2023/06/14 09:54:01;;;;;;;;;;;30.80;29.90;;;;;;6250205;22;19953;-79
2023/06/14 09:56:32;;;;;;;;;;;31.80;28.90;;;;;;6224340;22;19919;-79
2023/06/14 09:58:58;;;;;;;;;;;31.80;28.90;;;;;;6250712;22;20225;-79
2023/06/14 10:01:27;;;;;;;;;;;31.10;29.90;;;;;;6224379;22;19915;-79
2023/06/14 10:04:12;;;;;;;;;;;31.70;29.20;;;;;;6250374;22;19930;-80
2023/06/14 10:06:58;;;;;;;;;;;32.90;27.20;;;;;;6249409;22;20364;-79
2023/06/14 10:09:24;;;;;;;;;;;33.80;26.40;;;;;;6250014;22;19907;-78
2023/06/14 10:11:50;;;;;;;;;;;34.50;25.10;;;;;;6249566;22;20343;-78
2023/06/14 10:14:17;;;;;;;;;;;35.00;25.20;;;;;;6224795;22;19911;-78
2023/06/14 10:17:22;;;;;;;;;;;34.10;25.70;;;;;;6249801;22;19938;-79
2023/06/14 10:20:26;;;;;;;;;;;33.00;26.90;;;;;;6249684;22;19911;-79
2023/06/14 10:23:00;;;;;;;;;;;34.10;26.30;;;;;;6277013;22;20317;-79
2023/06/14 10:25:47;;;;;;;;;;;35.30;23.80;;;;;;6224403;22;19922;-78
2023/06/14 10:28:32;;;;;;;;;;;36.10;23.00;;;;;;6249645;22;19937;-79
2023/06/14 10:31:17;;;;;;;;;;;35.20;24.30;;;;;;6276277;22;19947;-78
2023/06/14 10:34:01;;;;;;;;;;;34.30;24.70;;;;;;6249626;22;19978;-79
2023/06/14 10:36:46;;;;;;;;;;;35.00;24.60;;;;;;6249133;22;20328;-79
2023/06/14 10:39:32;;;;;;;;;;;36.10;24.00;;;;;;6249899;22;19916;-79
2023/06/14 10:41:58;;;;;;;;;;;37.50;22.80;;;;;;6248866;22;19977;-79
2023/06/14 10:44:23;;;;;;;;;;;38.60;20.20;;;;;;6249636;22;20325;-79
2023/06/14 10:46:52;;;;;;;;;;;39.50;21.10;;;;;;6243339;22;19922;-80
2023/06/14 10:49:18;;;;;;;;;;;40.40;20.30;;;;;;6244327;23;20318;-80
2023/06/14 10:51:47;;;;;;;;;;;41.30;19.90;;;;;;6245738;22;19947;-80
2023/06/14 10:54:13;;;;;;;;;;;41.80;19.60;;;;;;6244644;23;19977;-80
2023/06/14 10:56:46;;;;;;;;;;;42.50;19.10;;;;;;6244247;22;19923;-79
2023/06/14 10:59:12;;;;;;;;;;;41.00;18.90;;;;;;6244787;23;19907;-78
2023/06/14 11:01:59;;;;;;;;;;;39.40;19.70;;;;;;6244145;23;20309;-78
2023/06/14 11:04:42;;;;;;;;;;;37.90;20.50;;;;;;6244777;23;19911;-79
2023/06/14 11:07:45;;;;;;;;;;;36.80;20.70;;;;;;6244416;22;19915;-78
2023/06/14 11:10:48;;;;;;;;;;;36.00;21.80;;;;;;6245640;22;20268;-77
2023/06/14 11:13:16;;;;;;;;;;;35.50;22.00;;;;;;6246041;23;19907;-78
2023/06/14 11:15:47;;;;;;;;;;;35.00;22.40;;;;;;6243953;23;19980;-79
2023/06/14 11:18:14;;;;;;;;;;;35.20;22.70;;;;;;6245614;23;19986;-79
2023/06/14 11:20:40;;;;;;;;;;;37.10;22.20;;;;;;6246106;22;20002;-79
2023/06/14 11:23:06;;;;;;;;;;;38.90;20.40;;;;;;6221555;23;20210;-80
2023/06/14 11:25:42;;;;;;;;;;;;;;;;;;;;;
2023/06/14 11:28:22;;;;;;;;;;;41.20;19.00;;;;;;6246879;23;19907;-79
2023/06/14 11:31:09;;;;;;;;;;;42.30;17.90;;;;;;6246040;23;19998;-79
2023/06/14 11:33:35;;;;;;;;;;;42.60;17.30;;;;;;6221231;23;19918;-79
2023/06/14 11:36:08;;;;;;;;;;;43.20;17.00;;;;;;6220600;23;19990;-80
2023/06/14 11:38:58;;;;;;;;;;;42.90;16.60;;;;;;6246833;22;19958;-79
2023/06/14 11:41:25;;;;;;;;;;;41.10;17.70;;;;;;6221164;23;19915;-79
2023/06/14 11:44:09;;;;;;;;;;;39.80;18.30;;;;;;6248018;22;20145;-79
2023/06/14 11:46:36;;;;;;;;;;;38.60;18.90;;;;;;6250605;22;19989;-79
2023/06/14 11:49:04;;;;;;;;;;;38.70;19.10;;;;;;6251441;22;19915;-79
2023/06/14 11:51:49;;;;;;;;;;;40.00;18.90;;;;;;6251154;22;19911;-80
2023/06/14 11:54:15;;;;;;;;;;;41.50;17.90;;;;;;6278487;22;19960;-79
2023/06/14 11:56:42;;;;;;;;;;;42.30;17.10;;;;;;6250845;22;19957;-79
2023/06/14 11:59:07;;;;;;;;;;;43.10;16.80;;;;;;6278400;22;19911;-78
2023/06/14 12:01:37;;;;;;;;;;;43.30;16.30;;;;;;6278120;22;19937;-78
2023/06/14 12:04:04;;;;;;;;;;;43.30;15.80;;;;;;6251717;22;19915;-79
2023/06/14 12:06:33;;;;;;;;;;;42.20;16.10;;;;;;6250719;22;19986;-79
2023/06/14 12:09:13;;;;;;;;;;;41.20;16.70;;;;;;6251578;22;19911;-78
2023/06/14 12:11:38;;;;;;;;;;;40.80;16.90;;;;;;6251889;22;19958;-78
2023/06/14 12:14:05;;;;;;;;;;;41.20;16.60;;;;;;6278387;22;19911;-78
2023/06/14 12:16:51;;;;;;;;;;;42.10;16.40;;;;;;6243704;23;19915;-78
2023/06/14 12:19:17;;;;;;;;;;;43.20;15.80;;;;;;6219606;23;20328;-79
2023/06/14 12:21:48;;;;;;;;;;;43.40;15.60;;;;;;6218452;23;20365;-78
2023/06/14 12:24:14;;;;;;;;;;;41.80;15.70;;;;;;6219974;23;19966;-79
2023/06/14 12:26:41;;;;;;;;;;;40.40;16.90;;;;;;6244020;23;19918;-78
2023/06/14 12:29:07;;;;;;;;;;;39.00;17.70;;;;;;6219054;23;19912;-78
2023/06/14 12:31:33;;;;;;;;;;;38.00;18.50;;;;;;6218481;23;19943;-78
2023/06/14 12:34:00;;;;;;;;;;;37.20;19.50;;;;;;6219334;23;20265;-78
2023/06/14 12:36:26;;;;;;;;;;;36.60;19.90;;;;;;6218000;23;20215;-78
2023/06/14 12:38:54;;;;;;;;;;;36.00;20.60;;;;;;6244515;23;19912;-79
2023/06/14 12:41:24;;;;;;;;;;;35.70;20.90;;;;;;6218885;23;19969;-79
2023/06/14 12:43:50;;;;;;;;;;;35.20;20.90;;;;;;6219931;23;19908;-80
2023/06/14 12:46:16;;;;;;;;;;;34.90;21.10;;;;;;6243611;22;20049;-77
2023/06/14 12:48:42;;;;;;;;;;;34.50;21.10;;;;;;6220147;23;19961;-78
2023/06/14 12:51:08;;;;;;;;;;;35.50;20.50;;;;;;6247139;22;19915;-78
2023/06/14 12:53:34;;;;;;;;;;;36.90;19.20;;;;;;6220740;23;19935;-78
2023/06/14 12:56:00;;;;;;;;;;;36.70;19.30;;;;;;6246808;22;19987;-78
2023/06/14 12:58:26;;;;;;;;;;;37.20;19.40;;;;;;6245837;23;19935;-79
2023/06/14 13:00:52;;;;;;;;;;;37.70;19.00;;;;;;6245250;23;19990;-77
2023/06/14 13:03:18;;;;;;;;;;;37.60;18.90;;;;;;6245681;23;19915;-77
2023/06/14 13:05:43;;;;;;;;;;;37.00;19.60;;;;;;6245195;23;19986;-77
2023/06/14 13:08:09;;;;;;;;;;;36.30;19.60;;;;;;6247305;22;20331;-79
2023/06/14 13:10:36;;;;;;;;;;;35.50;20.20;;;;;;6245027;23;19911;-78
2023/06/14 13:13:02;;;;;;;;;;;35.20;20.70;;;;;;6245391;22;19915;-78
2023/06/14 13:15:28;;;;;;;;;;;35.00;21.30;;;;;;6219779;23;19978;-78
2023/06/14 13:17:55;;;;;;;;;;;34.80;20.90;;;;;;6247284;22;19912;-79
2023/06/14 13:20:21;;;;;;;;;;;34.60;21.20;;;;;;6246563;22;19918;-78
2023/06/14 13:22:46;;;;;;;;;;;34.30;20.90;;;;;;6245397;22;20288;-79
2023/06/14 13:25:12;;;;;;;;;;;34.00;21.70;;;;;;6245057;23;19911;-77
2023/06/14 13:27:38;;;;;;;;;;;33.90;21.60;;;;;;6245375;22;19926;-79
2023/06/14 13:30:05;;;;;;;;;;;33.90;21.50;;;;;;6247009;22;19915;-78
2023/06/14 13:32:31;;;;;;;;;;;33.70;21.70;;;;;;6244920;22;19919;-79
2023/06/14 13:34:57;;;;;;;;;;;33.70;21.70;;;;;;6245294;23;20214;-79
2023/06/14 13:37:23;;;;;;;;;;;33.70;21.40;;;;;;6219149;23;19912;-78
2023/06/14 13:39:49;;;;;;;;;;;33.60;21.50;;;;;;6244950;23;19912;-79
2023/06/14 13:42:15;;;;;;;;;;;33.60;22.40;;;;;;6219359;23;20381;-79
2023/06/14 13:44:41;;;;;;;;;;;33.40;22.10;;;;;;6245276;23;19916;-78
2023/06/14 13:47:07;;;;;;;;;;;33.40;22.10;;;;;;6267907;22;20293;-79
2023/06/14 13:49:34;;;;;;;;;;;33.30;22.20;;;;;;6277370;22;20290;-78
2023/06/14 13:52:01;;;;;;;;;;;33.20;22.30;;;;;;6224600;22;20214;-78
2023/06/14 13:54:27;;;;;;;;;;;33.20;22.00;;;;;;6277371;22;19918;-79
2023/06/14 13:56:53;;;;;;;;;;;33.10;22.40;;;;;;6249556;22;19907;-79
2023/06/14 13:59:20;;;;;;;;;;;33.00;22.50;;;;;;6277918;22;19985;-79
2023/06/14 14:01:47;;;;;;;;;;;32.80;22.00;;;;;;6248881;22;19915;-79
2023/06/14 14:04:13;;;;;;;;;;;32.70;22.30;;;;;;6250014;22;20253;-78
2023/06/14 14:06:39;;;;;;;;;;;32.70;22.60;;;;;;6249316;22;19911;-79
2023/06/14 14:09:05;;;;;;;;;;;32.60;22.90;;;;;;6250451;22;19911;-78
2023/06/14 14:11:50;;;;;;;;;;;32.60;23.00;;;;;;6224225;22;19918;-78
2023/06/14 14:14:16;;;;;;;;;;;32.40;23.20;;;;;;6250376;22;20325;-78
2023/06/14 14:16:42;;;;;;;;;;;32.30;22.80;;;;;;6249258;22;19946;-79
2023/06/14 14:19:08;;;;;;;;;;;32.40;23.00;;;;;;6224896;22;19946;-78
2023/06/14 14:21:35;;;;;;;;;;;32.60;23.30;;;;;;6223904;22;19918;-79
2023/06/14 14:24:01;;;;;;;;;;;32.60;22.80;;;;;;6250391;22;20313;-78
2023/06/14 14:26:27;;;;;;;;;;;32.60;22.90;;;;;;6247948;22;19911;-78
2023/06/14 14:28:53;;;;;;;;;;;32.50;23.40;;;;;;6277528;22;19915;-77
2023/06/14 14:31:19;;;;;;;;;;;32.00;23.70;;;;;;6249235;22;19993;-78